sensor_id;sensor_type;location;lat;lon;timestamp;temperature;humidity
83650;DHT22;73612;50.948;6.956;2024-03-06T00:02:12;7.90;99.90
83650;DHT22;73612;50.948;6.956;2024-03-06T00:04:39;7.90;99.90
83650;DHT22;73612;50.948;6.956;2024-03-06T00:07:05;7.90;99.90
83650;DHT22;73612;50.948;6.956;2024-03-06T00:09:32;7.80;99.90
83650;DHT22;73612;50.948;6.956;2024-03-06T00:11:59;7.80;99.90
83650;DHT22;73612;50.948;6.956;2024-03-06T00:14:25;7.80;99.90
83650;DHT22;73612;50.948;6.956;2024-03-06T00:16:52;7.70;99.90
83650;DHT22;73612;50.948;6.956;2024-03-06T00:19:19;7.70;99.90
83650;DHT22;73612;50.948;6.956;2024-03-06T00:21:45;7.70;99.90
83650;DHT22;73612;50.948;6.956;2024-03-06T00:24:13;7.70;99.90
83650;DHT22;73612;50.948;6.956;2024-03-06T00:26:41;7.70;99.90
83650;DHT22;73612;50.948;6.956;2024-03-06T00:29:08;7.70;99.90
83650;DHT22;73612;50.948;6.956;2024-03-06T00:31:34;7.80;99.90
83650;DHT22;73612;50.948;6.956;2024-03-06T00:34:01;7.80;99.90
83650;DHT22;73612;50.948;6.956;2024-03-06T00:36:27;7.80;99.90
83650;DHT22;73612;50.948;6.956;2024-03-06T00:38:54;7.80;99.90
83650;DHT22;73612;50.948;6.956;2024-03-06T00:41:20;7.90;99.90
83650;DHT22;73612;50.948;6.956;2024-03-06T00:43:47;7.90;99.90
83650;DHT22;73612;50.948;6.956;2024-03-06T00:46:14;7.90;99.90
83650;DHT22;73612;50.948;6.956;2024-03-06T00:48:40;7.90;99.90
83650;DHT22;73612;50.948;6.956;2024-03-06T00:51:07;7.90;99.90
83650;DHT22;73612;50.948;6.956;2024-03-06T00:53:34;7.90;99.90
83650;DHT22;73612;50.948;6.956;2024-03-06T00:56:01;7.90;99.90
83650;DHT22;73612;50.948;6.956;2024-03-06T00:58:27;7.90;99.90
83650;DHT22;73612;50.948;6.956;2024-03-06T01:00:54;7.80;99.90
83650;DHT22;73612;50.948;6.956;2024-03-06T01:03:20;7.80;99.90
83650;DHT22;73612;50.948;6.956;2024-03-06T01:05:47;7.80;99.90
83650;DHT22;73612;50.948;6.956;2024-03-06T01:08:14;7.70;99.90
83650;DHT22;73612;50.948;6.956;2024-03-06T01:10:40;7.70;99.90
83650;DHT22;73612;50.948;6.956;2024-03-06T01:13:07;7.70;99.90
83650;DHT22;73612;50.948;6.956;2024-03-06T01:15:33;7.60;99.90
83650;DHT22;73612;50.948;6.956;2024-03-06T01:18:00;7.50;99.90
83650;DHT22;73612;50.948;6.956;2024-03-06T01:20:27;7.50;99.90
83650;DHT22;73612;50.948;6.956;2024-03-06T01:22:53;7.50;99.90
83650;DHT22;73612;50.948;6.956;2024-03-06T01:25:20;7.40;99.90
83650;DHT22;73612;50.948;6.956;2024-03-06T01:27:49;7.40;99.90
83650;DHT22;73612;50.948;6.956;2024-03-06T01:30:16;7.40;99.90
83650;DHT22;73612;50.948;6.956;2024-03-06T01:32:42;7.30;99.90
83650;DHT22;73612;50.948;6.956;2024-03-06T01:35:09;7.20;99.90
83650;DHT22;73612;50.948;6.956;2024-03-06T01:37:35;7.20;99.90
83650;DHT22;73612;50.948;6.956;2024-03-06T01:40:02;7.10;99.90
83650;DHT22;73612;50.948;6.956;2024-03-06T01:42:29;7.10;99.90
83650;DHT22;73612;50.948;6.956;2024-03-06T01:44:55;7.10;99.90
83650;DHT22;73612;50.948;6.956;2024-03-06T01:47:22;7.10;99.90
83650;DHT22;73612;50.948;6.956;2024-03-06T01:49:49;7.10;99.90
83650;DHT22;73612;50.948;6.956;2024-03-06T01:52:15;7.10;99.90
83650;DHT22;73612;50.948;6.956;2024-03-06T01:54:42;7.10;99.90
83650;DHT22;73612;50.948;6.956;2024-03-06T01:57:08;7.00;99.90
83650;DHT22;73612;50.948;6.956;2024-03-06T01:59:35;7.00;99.90
83650;DHT22;73612;50.948;6.956;2024-03-06T02:02:02;7.00;99.90
83650;DHT22;73612;50.948;6.956;2024-03-06T02:04:28;7.10;99.90
83650;DHT22;73612;50.948;6.956;2024-03-06T02:06:55;7.10;99.90
83650;DHT22;73612;50.948;6.956;2024-03-06T02:09:22;7.10;99.90
83650;DHT22;73612;50.948;6.956;2024-03-06T02:11:48;7.10;99.90
83650;DHT22;73612;50.948;6.956;2024-03-06T02:14:15;7.10;99.90
83650;DHT22;73612;50.948;6.956;2024-03-06T02:16:41;7.00;99.90
83650;DHT22;73612;50.948;6.956;2024-03-06T02:19:08;7.00;99.90
83650;DHT22;73612;50.948;6.956;2024-03-06T02:21:35;7.00;99.90
83650;DHT22;73612;50.948;6.956;2024-03-06T02:24:02;7.00;99.90
83650;DHT22;73612;50.948;6.956;2024-03-06T02:26:28;6.90;99.90
83650;DHT22;73612;50.948;6.956;2024-03-06T02:28:56;7.00;99.90
83650;DHT22;73612;50.948;6.956;2024-03-06T02:31:22;7.10;99.90
83650;DHT22;73612;50.948;6.956;2024-03-06T02:33:48;7.20;99.90
83650;DHT22;73612;50.948;6.956;2024-03-06T02:36:16;7.30;99.90
83650;DHT22;73612;50.948;6.956;2024-03-06T02:38:44;7.30;99.90
83650;DHT22;73612;50.948;6.956;2024-03-06T02:41:10;7.40;99.90
83650;DHT22;73612;50.948;6.956;2024-03-06T02:43:37;7.50;99.90
83650;DHT22;73612;50.948;6.956;2024-03-06T02:46:03;7.50;99.90
83650;DHT22;73612;50.948;6.956;2024-03-06T02:48:30;7.50;99.90
83650;DHT22;73612;50.948;6.956;2024-03-06T02:50:56;7.50;99.90
83650;DHT22;73612;50.948;6.956;2024-03-06T02:53:23;7.50;99.90
83650;DHT22;73612;50.948;6.956;2024-03-06T02:55:50;7.50;99.90
83650;DHT22;73612;50.948;6.956;2024-03-06T02:58:16;7.50;99.90
83650;DHT22;73612;50.948;6.956;2024-03-06T03:00:43;7.50;99.90
83650;DHT22;73612;50.948;6.956;2024-03-06T03:03:09;7.50;99.90
83650;DHT22;73612;50.948;6.956;2024-03-06T03:05:42;7.50;99.90
83650;DHT22;73612;50.948;6.956;2024-03-06T03:08:09;7.50;99.90
83650;DHT22;73612;50.948;6.956;2024-03-06T03:10:35;7.50;99.90
83650;DHT22;73612;50.948;6.956;2024-03-06T03:13:02;7.50;99.90
83650;DHT22;73612;50.948;6.956;2024-03-06T03:15:28;7.50;99.90
83650;DHT22;73612;50.948;6.956;2024-03-06T03:17:56;7.50;99.90
83650;DHT22;73612;50.948;6.956;2024-03-06T03:20:22;7.40;99.90
83650;DHT22;73612;50.948;6.956;2024-03-06T03:22:49;7.40;99.90
83650;DHT22;73612;50.948;6.956;2024-03-06T03:25:15;7.40;99.90
83650;DHT22;73612;50.948;6.956;2024-03-06T03:27:42;7.40;99.90
83650;DHT22;73612;50.948;6.956;2024-03-06T03:30:10;7.30;99.90
83650;DHT22;73612;50.948;6.956;2024-03-06T03:32:37;7.10;99.90
83650;DHT22;73612;50.948;6.956;2024-03-06T03:35:04;7.00;99.90
83650;DHT22;73612;50.948;6.956;2024-03-06T03:37:30;7.00;99.90
83650;DHT22;73612;50.948;6.956;2024-03-06T03:39:57;6.90;99.90
83650;DHT22;73612;50.948;6.956;2024-03-06T03:42:23;6.80;99.90
83650;DHT22;73612;50.948;6.956;2024-03-06T03:44:50;6.80;99.90
83650;DHT22;73612;50.948;6.956;2024-03-06T03:47:17;6.80;99.90
83650;DHT22;73612;50.948;6.956;2024-03-06T03:49:43;6.70;99.90
83650;DHT22;73612;50.948;6.956;2024-03-06T03:52:10;6.70;99.90
83650;DHT22;73612;50.948;6.956;2024-03-06T03:54:37;6.60;99.90
83650;DHT22;73612;50.948;6.956;2024-03-06T03:57:03;6.50;99.90
83650;DHT22;73612;50.948;6.956;2024-03-06T03:59:30;6.60;99.90
83650;DHT22;73612;50.948;6.956;2024-03-06T04:01:57;6.70;99.90
83650;DHT22;73612;50.948;6.956;2024-03-06T04:04:23;6.70;99.90
83650;DHT22;73612;50.948;6.956;2024-03-06T04:06:50;6.60;99.90
83650;DHT22;73612;50.948;6.956;2024-03-06T04:09:16;6.60;99.90
83650;DHT22;73612;50.948;6.956;2024-03-06T04:11:43;6.60;99.90
83650;DHT22;73612;50.948;6.956;2024-03-06T04:14:10;6.60;99.90
83650;DHT22;73612;50.948;6.956;2024-03-06T04:16:36;6.60;99.90
83650;DHT22;73612;50.948;6.956;2024-03-06T04:19:03;6.60;99.90
83650;DHT22;73612;50.948;6.956;2024-03-06T04:21:30;6.50;99.90
83650;DHT22;73612;50.948;6.956;2024-03-06T04:23:56;6.60;99.90
83650;DHT22;73612;50.948;6.956;2024-03-06T04:26:23;6.60;99.90
83650;DHT22;73612;50.948;6.956;2024-03-06T04:28:49;6.60;99.90
83650;DHT22;73612;50.948;6.956;2024-03-06T04:31:16;6.60;99.90
83650;DHT22;73612;50.948;6.956;2024-03-06T04:33:43;6.60;99.90
83650;DHT22;73612;50.948;6.956;2024-03-06T04:36:09;6.60;99.90
83650;DHT22;73612;50.948;6.956;2024-03-06T04:38:36;6.60;99.90
83650;DHT22;73612;50.948;6.956;2024-03-06T04:41:05;6.50;99.90
83650;DHT22;73612;50.948;6.956;2024-03-06T04:43:29;6.50;99.90
83650;DHT22;73612;50.948;6.956;2024-03-06T04:45:56;6.40;99.90
83650;DHT22;73612;50.948;6.956;2024-03-06T04:48:23;6.40;99.90
83650;DHT22;73612;50.948;6.956;2024-03-06T04:50:49;6.30;99.90
83650;DHT22;73612;50.948;6.956;2024-03-06T04:53:16;6.40;99.90
83650;DHT22;73612;50.948;6.956;2024-03-06T04:55:43;6.30;99.90
83650;DHT22;73612;50.948;6.956;2024-03-06T04:58:09;6.30;99.90
83650;DHT22;73612;50.948;6.956;2024-03-06T05:00:36;6.30;99.90
83650;DHT22;73612;50.948;6.956;2024-03-06T05:03:03;6.30;99.90
83650;DHT22;73612;50.948;6.956;2024-03-06T05:05:29;6.30;99.90
83650;DHT22;73612;50.948;6.956;2024-03-06T05:07:56;6.20;99.90
83650;DHT22;73612;50.948;6.956;2024-03-06T05:10:23;6.20;99.90
83650;DHT22;73612;50.948;6.956;2024-03-06T05:12:49;6.20;99.90
83650;DHT22;73612;50.948;6.956;2024-03-06T05:15:16;6.20;99.90
83650;DHT22;73612;50.948;6.956;2024-03-06T05:17:43;6.30;99.90
83650;DHT22;73612;50.948;6.956;2024-03-06T05:20:10;6.30;99.90
83650;DHT22;73612;50.948;6.956;2024-03-06T05:22:36;6.40;99.90
83650;DHT22;73612;50.948;6.956;2024-03-06T05:25:03;6.50;99.90
83650;DHT22;73612;50.948;6.956;2024-03-06T05:27:30;6.60;99.90
83650;DHT22;73612;50.948;6.956;2024-03-06T05:29:56;6.70;99.90
83650;DHT22;73612;50.948;6.956;2024-03-06T05:32:23;6.70;99.90
83650;DHT22;73612;50.948;6.956;2024-03-06T05:34:50;6.60;99.90
83650;DHT22;73612;50.948;6.956;2024-03-06T05:37:16;6.50;99.90
83650;DHT22;73612;50.948;6.956;2024-03-06T05:39:43;6.50;99.90
83650;DHT22;73612;50.948;6.956;2024-03-06T05:42:09;6.40;99.90
83650;DHT22;73612;50.948;6.956;2024-03-06T05:44:36;6.30;99.90
83650;DHT22;73612;50.948;6.956;2024-03-06T05:47:02;6.30;99.90
83650;DHT22;73612;50.948;6.956;2024-03-06T05:49:29;6.20;99.90
83650;DHT22;73612;50.948;6.956;2024-03-06T05:51:56;6.20;99.90
83650;DHT22;73612;50.948;6.956;2024-03-06T05:54:22;6.30;99.90
83650;DHT22;73612;50.948;6.956;2024-03-06T05:56:49;6.20;99.90
83650;DHT22;73612;50.948;6.956;2024-03-06T05:59:16;6.20;99.90
83650;DHT22;73612;50.948;6.956;2024-03-06T06:01:43;6.10;99.90
83650;DHT22;73612;50.948;6.956;2024-03-06T06:04:10;6.10;99.90
83650;DHT22;73612;50.948;6.956;2024-03-06T06:06:36;6.00;99.90
83650;DHT22;73612;50.948;6.956;2024-03-06T06:09:03;6.00;99.90
83650;DHT22;73612;50.948;6.956;2024-03-06T06:11:32;6.10;99.90
83650;DHT22;73612;50.948;6.956;2024-03-06T06:13:58;6.10;99.90
83650;DHT22;73612;50.948;6.956;2024-03-06T06:16:25;6.00;99.90
83650;DHT22;73612;50.948;6.956;2024-03-06T06:18:51;6.00;99.90
83650;DHT22;73612;50.948;6.956;2024-03-06T06:21:18;5.90;99.90
83650;DHT22;73612;50.948;6.956;2024-03-06T06:23:45;5.80;99.90
83650;DHT22;73612;50.948;6.956;2024-03-06T06:26:12;5.80;99.90
83650;DHT22;73612;50.948;6.956;2024-03-06T06:28:40;5.80;99.90
83650;DHT22;73612;50.948;6.956;2024-03-06T06:31:04;5.80;99.90
83650;DHT22;73612;50.948;6.956;2024-03-06T06:33:31;5.90;99.90
83650;DHT22;73612;50.948;6.956;2024-03-06T06:35:58;5.90;99.90
83650;DHT22;73612;50.948;6.956;2024-03-06T06:38:24;6.00;99.90
83650;DHT22;73612;50.948;6.956;2024-03-06T06:40:51;6.00;99.90
83650;DHT22;73612;50.948;6.956;2024-03-06T06:43:17;6.00;99.90
83650;DHT22;73612;50.948;6.956;2024-03-06T06:45:44;6.00;99.90
83650;DHT22;73612;50.948;6.956;2024-03-06T06:48:11;6.00;99.90
83650;DHT22;73612;50.948;6.956;2024-03-06T06:50:38;6.00;99.90
83650;DHT22;73612;50.948;6.956;2024-03-06T06:53:04;6.00;99.90
83650;DHT22;73612;50.948;6.956;2024-03-06T06:55:31;6.00;99.90
83650;DHT22;73612;50.948;6.956;2024-03-06T06:57:58;6.00;99.90
83650;DHT22;73612;50.948;6.956;2024-03-06T07:00:25;6.00;99.90
83650;DHT22;73612;50.948;6.956;2024-03-06T07:02:52;6.00;99.90
83650;DHT22;73612;50.948;6.956;2024-03-06T07:05:18;6.00;99.90
83650;DHT22;73612;50.948;6.956;2024-03-06T07:07:45;6.00;99.90
83650;DHT22;73612;50.948;6.956;2024-03-06T07:10:12;6.00;99.90
83650;DHT22;73612;50.948;6.956;2024-03-06T07:12:38;6.10;99.90
83650;DHT22;73612;50.948;6.956;2024-03-06T07:15:05;6.10;99.90
83650;DHT22;73612;50.948;6.956;2024-03-06T07:17:32;6.10;99.90
83650;DHT22;73612;50.948;6.956;2024-03-06T07:19:59;6.10;99.90
83650;DHT22;73612;50.948;6.956;2024-03-06T07:22:25;6.10;99.90
83650;DHT22;73612;50.948;6.956;2024-03-06T07:24:52;6.10;99.90
83650;DHT22;73612;50.948;6.956;2024-03-06T07:27:19;6.20;99.90
83650;DHT22;73612;50.948;6.956;2024-03-06T07:29:45;6.30;99.90
83650;DHT22;73612;50.948;6.956;2024-03-06T07:32:12;6.30;99.90
83650;DHT22;73612;50.948;6.956;2024-03-06T07:34:39;6.40;99.90
83650;DHT22;73612;50.948;6.956;2024-03-06T07:37:05;6.40;99.90
83650;DHT22;73612;50.948;6.956;2024-03-06T07:39:32;6.50;99.90
83650;DHT22;73612;50.948;6.956;2024-03-06T07:41:59;6.40;99.90
83650;DHT22;73612;50.948;6.956;2024-03-06T07:44:25;6.50;99.90
83650;DHT22;73612;50.948;6.956;2024-03-06T07:46:52;6.50;99.90
83650;DHT22;73612;50.948;6.956;2024-03-06T07:49:19;6.50;99.90
83650;DHT22;73612;50.948;6.956;2024-03-06T07:51:45;6.60;99.90
83650;DHT22;73612;50.948;6.956;2024-03-06T07:54:12;6.60;99.90
83650;DHT22;73612;50.948;6.956;2024-03-06T07:56:39;6.60;99.90
83650;DHT22;73612;50.948;6.956;2024-03-06T07:59:05;6.70;99.90
83650;DHT22;73612;50.948;6.956;2024-03-06T08:01:33;6.80;99.90
83650;DHT22;73612;50.948;6.956;2024-03-06T08:04:00;6.80;99.90
83650;DHT22;73612;50.948;6.956;2024-03-06T08:06:26;6.90;99.90
83650;DHT22;73612;50.948;6.956;2024-03-06T08:08:53;7.00;99.90
83650;DHT22;73612;50.948;6.956;2024-03-06T08:11:19;7.10;99.90
83650;DHT22;73612;50.948;6.956;2024-03-06T08:13:48;7.20;99.90
83650;DHT22;73612;50.948;6.956;2024-03-06T08:16:13;7.10;99.90
83650;DHT22;73612;50.948;6.956;2024-03-06T08:18:39;7.10;99.90
83650;DHT22;73612;50.948;6.956;2024-03-06T08:21:06;7.20;99.90
83650;DHT22;73612;50.948;6.956;2024-03-06T08:23:33;7.20;99.90
83650;DHT22;73612;50.948;6.956;2024-03-06T08:25:59;7.30;99.90
83650;DHT22;73612;50.948;6.956;2024-03-06T08:28:26;7.40;99.90
83650;DHT22;73612;50.948;6.956;2024-03-06T08:30:53;7.50;99.90
83650;DHT22;73612;50.948;6.956;2024-03-06T08:33:20;7.60;99.90
83650;DHT22;73612;50.948;6.956;2024-03-06T08:35:46;7.70;99.90
83650;DHT22;73612;50.948;6.956;2024-03-06T08:38:13;7.60;99.90
83650;DHT22;73612;50.948;6.956;2024-03-06T08:40:40;7.60;99.90
83650;DHT22;73612;50.948;6.956;2024-03-06T08:43:06;7.70;99.90
83650;DHT22;73612;50.948;6.956;2024-03-06T08:45:33;7.60;99.90
83650;DHT22;73612;50.948;6.956;2024-03-06T08:48:00;7.70;99.90
83650;DHT22;73612;50.948;6.956;2024-03-06T08:50:26;7.80;99.90
83650;DHT22;73612;50.948;6.956;2024-03-06T08:52:53;7.90;99.90
83650;DHT22;73612;50.948;6.956;2024-03-06T08:55:19;8.00;99.90
83650;DHT22;73612;50.948;6.956;2024-03-06T08:57:46;8.10;99.90
83650;DHT22;73612;50.948;6.956;2024-03-06T09:00:13;8.10;99.90
83650;DHT22;73612;50.948;6.956;2024-03-06T09:02:40;8.20;99.90
83650;DHT22;73612;50.948;6.956;2024-03-06T09:05:07;8.30;99.90
83650;DHT22;73612;50.948;6.956;2024-03-06T09:07:33;8.40;99.90
83650;DHT22;73612;50.948;6.956;2024-03-06T09:10:00;8.50;99.90
83650;DHT22;73612;50.948;6.956;2024-03-06T09:12:27;8.60;99.90
83650;DHT22;73612;50.948;6.956;2024-03-06T09:14:53;8.80;99.90
83650;DHT22;73612;50.948;6.956;2024-03-06T09:17:20;8.80;99.90
83650;DHT22;73612;50.948;6.956;2024-03-06T09:19:46;8.90;99.90
83650;DHT22;73612;50.948;6.956;2024-03-06T09:22:13;9.00;99.90
83650;DHT22;73612;50.948;6.956;2024-03-06T09:24:40;9.10;99.90
83650;DHT22;73612;50.948;6.956;2024-03-06T09:27:06;9.00;99.90
83650;DHT22;73612;50.948;6.956;2024-03-06T09:29:33;9.20;99.90
83650;DHT22;73612;50.948;6.956;2024-03-06T09:31:59;9.40;99.90
83650;DHT22;73612;50.948;6.956;2024-03-06T09:34:26;9.40;99.90
83650;DHT22;73612;50.948;6.956;2024-03-06T09:36:53;9.50;99.90
83650;DHT22;73612;50.948;6.956;2024-03-06T09:39:19;9.60;99.90
83650;DHT22;73612;50.948;6.956;2024-03-06T09:41:46;9.80;99.90
83650;DHT22;73612;50.948;6.956;2024-03-06T09:44:13;9.80;99.90
83650;DHT22;73612;50.948;6.956;2024-03-06T09:46:42;9.90;99.90
83650;DHT22;73612;50.948;6.956;2024-03-06T09:49:06;10.00;99.90
83650;DHT22;73612;50.948;6.956;2024-03-06T09:51:33;10.10;99.90
83650;DHT22;73612;50.948;6.956;2024-03-06T09:54:00;10.10;99.90
83650;DHT22;73612;50.948;6.956;2024-03-06T09:56:26;10.30;99.90
83650;DHT22;73612;50.948;6.956;2024-03-06T09:58:53;10.40;99.90
83650;DHT22;73612;50.948;6.956;2024-03-06T10:01:19;10.40;99.90
83650;DHT22;73612;50.948;6.956;2024-03-06T10:03:46;10.40;99.90
83650;DHT22;73612;50.948;6.956;2024-03-06T10:06:13;10.30;99.90
83650;DHT22;73612;50.948;6.956;2024-03-06T10:08:42;10.40;99.90
83650;DHT22;73612;50.948;6.956;2024-03-06T10:11:09;10.30;99.90
83650;DHT22;73612;50.948;6.956;2024-03-06T10:13:36;10.40;99.90
83650;DHT22;73612;50.948;6.956;2024-03-06T10:16:03;10.40;99.90
83650;DHT22;73612;50.948;6.956;2024-03-06T10:18:30;10.30;99.90
83650;DHT22;73612;50.948;6.956;2024-03-06T10:20:56;10.30;99.90
83650;DHT22;73612;50.948;6.956;2024-03-06T10:23:23;10.60;99.90
83650;DHT22;73612;50.948;6.956;2024-03-06T10:25:50;10.70;99.90
83650;DHT22;73612;50.948;6.956;2024-03-06T10:28:20;10.90;99.90
83650;DHT22;73612;50.948;6.956;2024-03-06T10:30:46;10.70;99.90
83650;DHT22;73612;50.948;6.956;2024-03-06T10:33:13;11.00;99.90
83650;DHT22;73612;50.948;6.956;2024-03-06T10:35:40;11.10;99.90
83650;DHT22;73612;50.948;6.956;2024-03-06T10:38:07;11.20;99.90
83650;DHT22;73612;50.948;6.956;2024-03-06T10:40:35;11.40;99.90
83650;DHT22;73612;50.948;6.956;2024-03-06T10:43:02;11.30;99.90
83650;DHT22;73612;50.948;6.956;2024-03-06T10:45:49;11.40;99.90
83650;DHT22;73612;50.948;6.956;2024-03-06T10:48:15;11.40;99.90
83650;DHT22;73612;50.948;6.956;2024-03-06T10:50:42;11.60;99.90
83650;DHT22;73612;50.948;6.956;2024-03-06T10:53:10;11.50;99.90
83650;DHT22;73612;50.948;6.956;2024-03-06T10:55:36;11.80;99.90
83650;DHT22;73612;50.948;6.956;2024-03-06T10:58:05;12.40;99.90
83650;DHT22;73612;50.948;6.956;2024-03-06T11:00:32;13.70;99.90
83650;DHT22;73612;50.948;6.956;2024-03-06T11:02:58;15.10;99.90
83650;DHT22;73612;50.948;6.956;2024-03-06T11:05:25;15.00;97.80
83650;DHT22;73612;50.948;6.956;2024-03-06T11:07:51;14.80;98.90
83650;DHT22;73612;50.948;6.956;2024-03-06T11:10:35;16.20;97.70
83650;DHT22;73612;50.948;6.956;2024-03-06T11:13:01;17.00;96.60
83650;DHT22;73612;50.948;6.956;2024-03-06T11:15:28;17.60;91.90
83650;DHT22;73612;50.948;6.956;2024-03-06T11:17:55;18.00;91.10
83650;DHT22;73612;50.948;6.956;2024-03-06T11:20:22;17.30;92.70
83650;DHT22;73612;50.948;6.956;2024-03-06T11:23:02;18.00;88.70
83650;DHT22;73612;50.948;6.956;2024-03-06T11:25:56;18.30;93.10
83650;DHT22;73612;50.948;6.956;2024-03-06T11:28:26;18.60;76.90
83650;DHT22;73612;50.948;6.956;2024-03-06T11:30:56;19.10;81.10
83650;DHT22;73612;50.948;6.956;2024-03-06T11:33:22;19.80;75.80
83650;DHT22;73612;50.948;6.956;2024-03-06T11:38:28;18.40;81.70
83650;DHT22;73612;50.948;6.956;2024-03-06T11:40:54;19.20;78.20
83650;DHT22;73612;50.948;6.956;2024-03-06T11:43:23;19.60;83.90
83650;DHT22;73612;50.948;6.956;2024-03-06T11:45:49;20.10;75.80
83650;DHT22;73612;50.948;6.956;2024-03-06T11:48:15;20.90;56.10
83650;DHT22;73612;50.948;6.956;2024-03-06T11:50:43;20.40;60.80
83650;DHT22;73612;50.948;6.956;2024-03-06T11:53:09;21.00;64.40
83650;DHT22;73612;50.948;6.956;2024-03-06T11:55:36;19.50;77.50
83650;DHT22;73612;50.948;6.956;2024-03-06T11:58:02;20.00;66.50
83650;DHT22;73612;50.948;6.956;2024-03-06T12:00:30;21.20;67.00
83650;DHT22;73612;50.948;6.956;2024-03-06T12:02:56;20.80;64.20
83650;DHT22;73612;50.948;6.956;2024-03-06T12:05:23;18.70;66.40
83650;DHT22;73612;50.948;6.956;2024-03-06T12:07:50;19.90;58.90
83650;DHT22;73612;50.948;6.956;2024-03-06T12:10:17;19.40;63.30
83650;DHT22;73612;50.948;6.956;2024-03-06T12:12:43;18.80;76.40
83650;DHT22;73612;50.948;6.956;2024-03-06T12:15:10;17.50;83.60
83650;DHT22;73612;50.948;6.956;2024-03-06T12:17:45;16.50;91.20
83650;DHT22;73612;50.948;6.956;2024-03-06T12:20:12;16.40;90.00
83650;DHT22;73612;50.948;6.956;2024-03-06T12:22:48;16.40;91.10
83650;DHT22;73612;50.948;6.956;2024-03-06T12:25:18;16.40;93.80
83650;DHT22;73612;50.948;6.956;2024-03-06T12:27:44;15.80;89.90
83650;DHT22;73612;50.948;6.956;2024-03-06T12:30:11;16.70;86.80
83650;DHT22;73612;50.948;6.956;2024-03-06T12:32:37;16.90;90.50
83650;DHT22;73612;50.948;6.956;2024-03-06T12:35:04;17.70;86.00
83650;DHT22;73612;50.948;6.956;2024-03-06T12:37:32;18.70;91.40
83650;DHT22;73612;50.948;6.956;2024-03-06T12:39:58;19.80;59.50
83650;DHT22;73612;50.948;6.956;2024-03-06T12:42:24;20.80;59.70
83650;DHT22;73612;50.948;6.956;2024-03-06T12:44:51;20.80;50.90
83650;DHT22;73612;50.948;6.956;2024-03-06T12:47:18;21.30;57.70
83650;DHT22;73612;50.948;6.956;2024-03-06T12:49:44;21.80;47.10
83650;DHT22;73612;50.948;6.956;2024-03-06T12:52:11;21.70;47.70
83650;DHT22;73612;50.948;6.956;2024-03-06T12:54:37;21.30;56.20
83650;DHT22;73612;50.948;6.956;2024-03-06T12:57:04;21.30;48.30
83650;DHT22;73612;50.948;6.956;2024-03-06T12:59:31;20.50;47.60
83650;DHT22;73612;50.948;6.956;2024-03-06T13:01:57;21.50;52.90
83650;DHT22;73612;50.948;6.956;2024-03-06T13:04:24;20.70;53.80
83650;DHT22;73612;50.948;6.956;2024-03-06T13:06:50;22.00;50.40
83650;DHT22;73612;50.948;6.956;2024-03-06T13:09:17;22.80;46.70
83650;DHT22;73612;50.948;6.956;2024-03-06T13:11:44;23.40;46.50
83650;DHT22;73612;50.948;6.956;2024-03-06T13:14:10;23.90;41.20
83650;DHT22;73612;50.948;6.956;2024-03-06T13:16:37;23.90;39.00
83650;DHT22;73612;50.948;6.956;2024-03-06T13:19:03;24.00;35.20
83650;DHT22;73612;50.948;6.956;2024-03-06T13:21:30;23.90;35.80
83650;DHT22;73612;50.948;6.956;2024-03-06T13:23:57;23.10;39.60
83650;DHT22;73612;50.948;6.956;2024-03-06T13:26:23;24.60;38.40
83650;DHT22;73612;50.948;6.956;2024-03-06T13:28:50;24.70;36.80
83650;DHT22;73612;50.948;6.956;2024-03-06T13:31:17;25.20;37.80
83650;DHT22;73612;50.948;6.956;2024-03-06T13:33:43;24.80;30.80
83650;DHT22;73612;50.948;6.956;2024-03-06T13:36:10;24.80;34.10
83650;DHT22;73612;50.948;6.956;2024-03-06T13:38:37;24.30;37.20
83650;DHT22;73612;50.948;6.956;2024-03-06T13:41:03;24.90;29.60
83650;DHT22;73612;50.948;6.956;2024-03-06T13:43:30;24.00;35.00
83650;DHT22;73612;50.948;6.956;2024-03-06T13:45:56;24.40;30.50
83650;DHT22;73612;50.948;6.956;2024-03-06T13:48:23;24.00;31.60
83650;DHT22;73612;50.948;6.956;2024-03-06T13:50:50;24.10;33.90
83650;DHT22;73612;50.948;6.956;2024-03-06T13:53:16;24.90;34.20
83650;DHT22;73612;50.948;6.956;2024-03-06T13:55:43;24.00;30.20
83650;DHT22;73612;50.948;6.956;2024-03-06T13:58:09;22.50;32.50
83650;DHT22;73612;50.948;6.956;2024-03-06T14:00:36;21.50;35.70
83650;DHT22;73612;50.948;6.956;2024-03-06T14:03:03;21.40;38.10
83650;DHT22;73612;50.948;6.956;2024-03-06T14:05:29;21.70;35.60
83650;DHT22;73612;50.948;6.956;2024-03-06T14:07:57;21.90;34.90
83650;DHT22;73612;50.948;6.956;2024-03-06T14:10:23;22.40;36.90
83650;DHT22;73612;50.948;6.956;2024-03-06T14:12:50;23.10;36.70
83650;DHT22;73612;50.948;6.956;2024-03-06T14:15:17;23.20;32.60
83650;DHT22;73612;50.948;6.956;2024-03-06T14:17:43;23.50;35.40
83650;DHT22;73612;50.948;6.956;2024-03-06T14:20:11;23.00;32.80
83650;DHT22;73612;50.948;6.956;2024-03-06T14:22:37;22.30;32.20
83650;DHT22;73612;50.948;6.956;2024-03-06T14:25:04;22.80;33.20
83650;DHT22;73612;50.948;6.956;2024-03-06T14:27:31;22.50;36.80
83650;DHT22;73612;50.948;6.956;2024-03-06T14:29:57;22.00;34.50
83650;DHT22;73612;50.948;6.956;2024-03-06T14:32:25;22.30;36.30
83650;DHT22;73612;50.948;6.956;2024-03-06T14:34:51;22.50;34.40
83650;DHT22;73612;50.948;6.956;2024-03-06T14:37:18;22.90;33.80
83650;DHT22;73612;50.948;6.956;2024-03-06T14:39:44;22.50;34.50
83650;DHT22;73612;50.948;6.956;2024-03-06T14:42:11;22.50;31.50
83650;DHT22;73612;50.948;6.956;2024-03-06T14:44:38;22.20;34.70
83650;DHT22;73612;50.948;6.956;2024-03-06T14:47:04;22.80;33.60
83650;DHT22;73612;50.948;6.956;2024-03-06T14:49:31;22.80;33.30
83650;DHT22;73612;50.948;6.956;2024-03-06T14:51:58;22.80;37.10
83650;DHT22;73612;50.948;6.956;2024-03-06T14:54:24;21.10;34.80
83650;DHT22;73612;50.948;6.956;2024-03-06T14:56:52;20.80;38.00
83650;DHT22;73612;50.948;6.956;2024-03-06T14:59:18;21.70;43.20
83650;DHT22;73612;50.948;6.956;2024-03-06T15:01:45;22.50;33.40
83650;DHT22;73612;50.948;6.956;2024-03-06T15:04:12;22.40;39.00
83650;DHT22;73612;50.948;6.956;2024-03-06T15:06:38;21.80;39.10
83650;DHT22;73612;50.948;6.956;2024-03-06T15:09:08;22.20;39.10
83650;DHT22;73612;50.948;6.956;2024-03-06T15:11:40;21.20;39.30
83650;DHT22;73612;50.948;6.956;2024-03-06T15:14:08;21.30;37.10
83650;DHT22;73612;50.948;6.956;2024-03-06T15:16:51;21.40;39.80
83650;DHT22;73612;50.948;6.956;2024-03-06T15:19:22;21.00;37.10
83650;DHT22;73612;50.948;6.956;2024-03-06T15:21:57;20.50;36.20
83650;DHT22;73612;50.948;6.956;2024-03-06T15:24:30;18.50;38.60
83650;DHT22;73612;50.948;6.956;2024-03-06T15:27:05;17.70;42.70
83650;DHT22;73612;50.948;6.956;2024-03-06T15:29:36;16.70;42.80
83650;DHT22;73612;50.948;6.956;2024-03-06T15:32:10;15.80;45.40
83650;DHT22;73612;50.948;6.956;2024-03-06T15:37:14;15.70;51.30
83650;DHT22;73612;50.948;6.956;2024-03-06T15:39:49;15.80;56.70
83650;DHT22;73612;50.948;6.956;2024-03-06T15:42:32;15.60;68.20
83650;DHT22;73612;50.948;6.956;2024-03-06T15:45:03;15.60;56.70